createdAt,value
2018-12-25T07:07:50.715Z,102287.84
2018-12-25T07:10:21.138Z,102284.52
2018-12-25T07:12:51.257Z,102276.73
2018-12-25T07:15:33.012Z,102271.88
2018-12-25T07:17:56.832Z,102265.28
2018-12-25T07:20:28.988Z,102271.48
2018-12-25T07:22:59.390Z,102268.73
2018-12-25T07:25:29.350Z,102260.54
2018-12-25T07:30:55.993Z,102264.43
2018-12-25T07:33:27.095Z,102262.65
2018-12-25T07:35:57.490Z,102256.32
2018-12-25T07:38:27.518Z,102264.43
2018-12-25T07:40:57.783Z,102260.21
2018-12-25T07:43:28.569Z,102253.69
2018-12-25T07:45:58.856Z,102265.28
2018-12-25T07:48:30.190Z,102267.84
2018-12-25T07:51:00.509Z,102271.48
2018-12-25T07:53:31.057Z,102267.87
2018-12-25T07:56:00.840Z,102282.05
2018-12-25T07:58:30.904Z,102277.67
2018-12-25T08:01:00.667Z,102270.59
2018-12-25T08:03:30.589Z,102262.41
2018-12-25T08:06:00.561Z,102266.41
2018-12-25T08:08:30.439Z,102277.79
2018-12-25T08:11:00.129Z,102284.51
2018-12-25T08:13:30.729Z,102287.66
2018-12-25T08:16:00.465Z,102271.02
2018-12-25T08:18:30.929Z,102262.01
2018-12-25T08:21:01.087Z,102266.02
2018-12-25T08:23:30.915Z,102262.94
2018-12-25T08:26:00.951Z,102257.23
2018-12-25T08:28:30.798Z,102250.34
2018-12-25T08:31:00.931Z,102246.77
2018-12-25T08:33:30.931Z,102247.45
2018-12-25T08:36:00.635Z,102265.05
2018-12-25T08:38:33.038Z,102280.17
2018-12-25T08:41:03.029Z,102273.51
2018-12-25T08:43:33.088Z,102273.39
2018-12-25T08:46:03.043Z,102267.95
2018-12-25T08:48:33.194Z,102261.75
2018-12-25T08:51:03.254Z,102273.02
2018-12-25T08:53:33.035Z,102275.21
2018-12-25T08:56:02.755Z,102275.66
2018-12-25T08:58:32.610Z,102284.63
2018-12-25T09:01:02.356Z,102291.37
2018-12-25T09:03:33.079Z,102292.67
2018-12-25T09:06:03.065Z,102292.30
2018-12-25T09:08:52.914Z,102295.67
2018-12-25T09:11:29.922Z,102298.25
2018-12-25T09:13:59.899Z,102301.98
2018-12-25T09:16:31.794Z,102292.72
2018-12-25T09:19:01.910Z,102290.66
2018-12-25T09:21:31.786Z,102282.27
2018-12-25T09:24:02.001Z,102281.61
2018-12-25T09:26:31.872Z,102286.20
2018-12-25T09:29:03.231Z,102284.20
2018-12-25T09:31:34.187Z,102294.63
2018-12-25T09:34:07.781Z,102292.62
2018-12-25T09:36:37.781Z,102299.59
2018-12-25T09:39:08.254Z,102296.30
2018-12-25T09:41:38.154Z,102301.34
2018-12-25T09:44:08.057Z,102297.52
2018-12-25T09:46:38.744Z,102299.38
2018-12-25T09:49:09.463Z,102292.28
2018-12-25T09:51:40.158Z,102298.20
2018-12-25T09:54:10.906Z,102302.25
2018-12-25T09:56:40.971Z,102296.67
2018-12-25T09:59:11.721Z,102293.51
2018-12-25T10:01:41.994Z,102292.72
2018-12-25T10:04:12.088Z,102300.52
2018-12-25T10:06:42.812Z,102301.17
2018-12-25T10:09:13.591Z,102291.70
2018-12-25T10:11:44.546Z,102293.52
2018-12-25T10:14:14.811Z,102291.40
2018-12-25T10:16:44.836Z,102300.08
2018-12-25T10:19:14.783Z,102294.71
2018-12-25T10:21:45.285Z,102295.09
2018-12-25T10:24:15.884Z,102297.38
2018-12-25T10:26:45.928Z,102294.71
2018-12-25T10:29:16.347Z,102299.98
2018-12-25T10:31:46.637Z,102294.78
2018-12-25T10:34:16.769Z,102277.41
2018-12-25T10:36:46.718Z,102281.37
2018-12-25T10:39:17.134Z,102275.30
2018-12-25T10:41:47.268Z,102269.72
2018-12-25T10:44:17.051Z,102263.70
2018-12-25T10:46:47.366Z,102263.22
2018-12-25T10:49:17.623Z,102256.31
2018-12-25T10:51:47.976Z,102256.80
2018-12-25T10:54:20.677Z,102263.63
2018-12-25T10:56:50.491Z,102261.99
2018-12-25T10:59:20.664Z,102253.41
2018-12-25T11:01:50.547Z,102258.20
2018-12-25T11:04:20.762Z,102255.63
2018-12-25T11:06:51.339Z,102255.70
2018-12-25T11:09:21.382Z,102252.69
2018-12-25T11:11:51.311Z,102245.75
2018-12-25T11:14:21.783Z,102234.91
2018-12-25T11:16:59.529Z,102241.54
2018-12-25T11:19:30.848Z,102231.11
2018-12-25T11:22:01.044Z,102241.70
2018-12-25T11:24:31.921Z,102233.09
2018-12-25T11:27:02.577Z,102232.70
2018-12-25T11:29:33.084Z,102234.92
2018-12-25T11:32:03.350Z,102238.89
2018-12-25T11:34:33.523Z,102240.70
2018-12-25T11:37:03.250Z,102238.00
2018-12-25T11:39:33.810Z,102249.48
2018-12-25T11:42:03.502Z,102239.98
2018-12-25T11:44:33.596Z,102242.98
2018-12-25T11:47:03.943Z,102244.39
2018-12-25T11:49:34.328Z,102233.48
2018-12-25T11:52:04.445Z,102224.95
2018-12-25T11:54:34.522Z,102218.95
2018-12-25T11:57:04.695Z,102224.67
2018-12-25T11:59:38.366Z,102225.08
2018-12-25T12:02:16.769Z,102224.19
2018-12-25T12:04:39.758Z,102228.67
2018-12-25T12:07:09.463Z,102224.29
2018-12-25T12:09:45.142Z,102223.08
2018-12-25T12:12:19.650Z,102221.78
2018-12-25T12:14:49.631Z,102226.25
2018-12-25T12:17:19.386Z,102225.05
2018-12-25T12:19:49.155Z,102232.85
2018-12-25T12:22:18.882Z,102228.03
2018-12-25T12:24:48.619Z,102235.04
2018-12-25T12:27:18.803Z,102230.25
2018-12-25T12:29:48.864Z,102232.41
2018-12-25T12:32:19.181Z,102233.84
2018-12-25T12:34:49.137Z,102226.34
2018-12-25T12:37:18.968Z,102229.05
2018-12-25T12:39:48.991Z,102231.33
2018-12-25T12:42:19.014Z,102235.64
2018-12-25T12:44:48.831Z,102242.23
2018-12-25T12:47:18.567Z,102240.50
2018-12-25T12:49:48.916Z,102230.44
2018-12-25T12:52:18.998Z,102241.32
2018-12-25T12:55:04.928Z,102232.22
2018-12-25T12:57:42.862Z,102236.12
2018-12-25T13:00:24.505Z,102234.50
2018-12-25T13:03:02.991Z,102234.25
2018-12-25T13:05:33.395Z,102237.42
2018-12-25T13:08:03.215Z,102240.53
2018-12-25T13:10:33.036Z,102242.23
2018-12-25T13:13:02.763Z,102247.89
2018-12-25T13:15:32.857Z,102246.62
2018-12-25T13:18:02.933Z,102245.29
2018-12-25T13:20:32.931Z,102237.48
2018-12-25T13:23:03.033Z,102230.91
2018-12-25T13:25:33.364Z,102232.12
2018-12-25T13:28:03.266Z,102238.24
2018-12-25T13:30:33.366Z,102231.39
2018-12-25T13:33:03.088Z,102230.41
2018-12-25T13:35:32.814Z,102233.04
2018-12-25T13:38:02.901Z,102233.52
2018-12-25T13:40:33.335Z,102251.25
2018-12-25T13:43:03.055Z,102247.89
2018-12-25T13:45:33.391Z,102239.45
2018-12-25T13:48:06.111Z,102231.23
2018-12-25T13:50:36.055Z,102231.23
2018-12-25T13:53:06.104Z,102218.32
2018-12-25T13:55:36.565Z,102234.34
2018-12-25T13:58:06.677Z,102240.30
2018-12-25T14:00:37.500Z,102241.22
2018-12-25T14:03:07.510Z,102239.55
2018-12-25T14:05:38.233Z,102247.83
2018-12-25T14:08:08.147Z,102255.12
2018-12-25T14:10:37.897Z,102249.12
2018-12-25T14:13:08.360Z,102237.70
2018-12-25T14:15:38.746Z,102245.92
2018-12-25T14:18:10.113Z,102245.03
2018-12-25T14:20:40.215Z,102256.83
2018-12-25T14:23:11.276Z,102253.75
2018-12-25T14:25:42.025Z,102269.05
2018-12-25T14:28:12.858Z,102260.73
2018-12-25T14:30:42.912Z,102264.73
2018-12-25T14:33:12.948Z,102264.54
2018-12-25T14:35:42.969Z,102257.12
2018-12-25T14:38:12.735Z,102255.44
2018-12-25T14:40:42.455Z,102248.77
2018-12-25T14:43:12.537Z,102249.63
2018-12-25T14:45:42.394Z,102253.97
2018-12-25T14:48:12.467Z,102251.34
2018-12-25T14:50:42.523Z,102244.36
2018-12-25T14:53:19.704Z,102246.05
2018-12-25T14:55:44.832Z,102251.34
2018-12-25T14:58:15.162Z,102237.04
2018-12-25T15:00:45.292Z,102231.23
2018-12-25T15:03:15.295Z,102229.59
2018-12-25T15:05:45.659Z,102228.95
2018-12-25T15:08:15.697Z,102240.17
2018-12-25T15:10:45.461Z,102236.17
2018-12-25T15:13:15.204Z,102240.11
2018-12-25T15:15:45.269Z,102240.11
2018-12-25T15:18:15.385Z,102237.48
2018-12-25T15:20:45.134Z,102234.50
2018-12-25T15:23:14.886Z,102236.17
2018-12-25T15:25:45.198Z,102239.41
2018-12-25T15:28:17.437Z,102244.80
2018-12-25T15:30:47.772Z,102239.09
2018-12-25T15:33:17.653Z,102244.57
2018-12-25T15:35:48.075Z,102240.30
2018-12-25T15:38:18.886Z,102249.02
2018-12-25T15:40:49.056Z,102242.09
2018-12-25T15:43:19.510Z,102237.28
2018-12-25T15:45:49.277Z,102238.48
2018-12-25T15:48:19.313Z,102244.60
2018-12-25T15:53:42.949Z,102238.07
2018-12-25T15:56:25.661Z,102235.88
2018-12-25T15:58:55.607Z,102243.68
2018-12-25T16:01:25.551Z,102252.40
2018-12-25T16:03:55.711Z,102240.44
2018-12-25T16:06:25.779Z,102241.91
2018-12-25T16:08:56.171Z,102243.20
2018-12-25T16:11:26.771Z,102235.81
2018-12-25T16:13:56.744Z,102241.42
2018-12-25T16:16:26.774Z,102234.92
2018-12-25T16:18:57.435Z,102238.70
2018-12-25T16:21:28.101Z,102250.63
2018-12-25T16:23:58.394Z,102240.60
2018-12-25T16:26:29.342Z,102244.88
2018-12-25T16:29:00.881Z,102246.22
2018-12-25T16:31:31.246Z,102245.70
2018-12-25T16:34:01.026Z,102247.83
2018-12-25T16:36:30.965Z,102247.92
2018-12-25T16:39:01.132Z,102254.80
2018-12-25T16:41:32.882Z,102245.09
2018-12-25T16:44:03.352Z,102248.92
2018-12-25T16:46:33.722Z,102246.11
2018-12-25T16:49:03.500Z,102245.98
2018-12-25T16:51:33.566Z,102242.91
2018-12-25T16:54:03.390Z,102236.34
2018-12-25T16:56:33.486Z,102235.93
2018-12-25T16:59:04.206Z,102229.12
2018-12-25T17:01:33.962Z,102232.09
2018-12-25T17:04:04.276Z,102234.50
2018-12-25T17:06:34.427Z,102228.51
2018-12-25T17:09:05.411Z,102226.80
2018-12-25T17:11:35.272Z,102224.23
2018-12-25T17:14:05.950Z,102224.30
2018-12-25T17:16:35.780Z,102229.09
2018-12-25T17:19:05.566Z,102233.23
2018-12-25T17:21:35.321Z,102230.16
2018-12-25T17:24:05.463Z,102222.52
2018-12-25T17:26:35.326Z,102225.53
2018-12-25T17:29:05.655Z,102227.69
2018-12-25T17:31:35.536Z,102223.31
2018-12-25T17:34:05.283Z,102222.02
2018-12-25T17:36:35.242Z,102230.28
2018-12-25T17:39:07.492Z,102223.31
2018-12-25T17:41:37.325Z,102232.31
2018-12-25T17:44:07.142Z,102231.83
2018-12-25T17:46:38.933Z,102235.93
2018-12-25T17:49:09.026Z,102231.11
2018-12-25T17:51:38.901Z,102228.34
2018-12-25T17:54:10.843Z,102227.11
2018-12-25T17:56:40.572Z,102231.01
2018-12-25T17:59:11.020Z,102234.13
2018-12-25T18:01:41.011Z,102236.20
2018-12-25T18:04:11.307Z,102235.04
2018-12-25T18:06:41.942Z,102241.44
2018-12-25T18:09:13.392Z,102236.00
2018-12-25T18:11:43.804Z,102232.89
2018-12-25T18:14:13.916Z,102235.62
2018-12-25T18:16:44.266Z,102236.03
2018-12-25T18:19:14.575Z,102238.12
2018-12-25T18:21:44.634Z,102240.41
2018-12-25T18:24:19.440Z,102241.13
2018-12-25T18:26:49.357Z,102239.83
2018-12-25T18:29:19.780Z,102243.00
2018-12-25T18:31:50.417Z,102244.69
2018-12-25T18:34:20.526Z,102256.92
2018-12-25T18:36:51.258Z,102240.78
2018-12-25T18:39:27.828Z,102252.38
2018-12-25T18:41:58.288Z,102246.08
2018-12-25T18:44:28.900Z,102258.53
2018-12-25T18:46:59.004Z,102252.58
2018-12-25T18:49:30.035Z,102255.28
2018-12-25T18:52:00.477Z,102254.97
2018-12-25T18:54:30.494Z,102249.70
2018-12-25T18:57:00.858Z,102252.30
2018-12-25T18:59:31.097Z,102252.30
2018-12-25T19:02:01.191Z,102247.10
2018-12-25T19:04:31.779Z,102248.88
2018-12-25T19:07:02.304Z,102244.19
2018-12-25T19:09:32.407Z,102246.38
2018-12-25T19:12:02.324Z,102245.87
2018-12-25T19:14:33.965Z,102246.63
2018-12-25T19:17:04.273Z,102241.18
2018-12-25T19:19:35.568Z,102241.11
2018-12-25T19:22:06.617Z,102239.88
2018-12-25T19:24:37.159Z,102236.49
2018-12-25T19:27:07.370Z,102236.55
2018-12-25T19:29:37.596Z,102236.08
2018-12-25T19:32:08.154Z,102233.95
2018-12-25T19:34:38.722Z,102236.55
2018-12-25T19:37:09.891Z,102237.48
2018-12-25T19:39:40.278Z,102226.16
2018-12-25T19:42:10.680Z,102223.17
2018-12-25T19:44:40.751Z,102228.38
2018-12-25T19:47:11.344Z,102219.75
2018-12-25T19:49:41.931Z,102220.20
2018-12-25T19:52:12.157Z,102216.70
2018-12-25T19:54:44.629Z,102218.95
2018-12-25T19:57:15.411Z,102209.89
2018-12-25T19:59:45.184Z,102218.64
2018-12-25T20:02:15.788Z,102212.97
2018-12-25T20:05:49.152Z,102208.66
2018-12-25T20:08:50.824Z,102205.10
2018-12-25T20:12:20.388Z,102209.16
2018-12-25T20:15:35.389Z,102206.56
2018-12-25T20:19:10.477Z,102214.84
2018-12-25T20:22:40.201Z,102210.46
2018-12-25T20:26:02.044Z,102224.38
2018-12-25T20:29:48.636Z,102219.72
2018-12-25T20:33:04.928Z,102217.98
2018-12-25T20:36:55.607Z,102209.73
2018-12-25T20:40:26.088Z,102201.07
2018-12-25T20:43:55.543Z,102211.12
2018-12-25T20:47:21.144Z,102198.92
2018-12-25T20:50:33.483Z,102190.23
2018-12-25T20:54:09.707Z,102200.16
2018-12-25T20:57:48.250Z,102195.43
2018-12-25T21:01:21.319Z,102189.28
2018-12-25T21:04:56.403Z,102185.82
2018-12-25T21:08:12.318Z,102191.53
2018-12-25T21:11:52.882Z,102185.38
2018-12-25T21:15:27.680Z,102179.35
2018-12-25T21:18:58.755Z,102185.34
2018-12-25T21:22:36.838Z,102181.95
2018-12-25T21:26:00.814Z,102187.13
2018-12-25T21:28:33.642Z,102196.23
2018-12-25T21:31:04.601Z,102192.23
2018-12-25T21:33:35.416Z,102198.83
2018-12-25T21:36:05.225Z,102194.77
2018-12-25T21:38:34.934Z,102202.56
2018-12-25T21:41:05.013Z,102204.25
2018-12-25T21:43:35.082Z,102197.30
2018-12-25T21:46:04.805Z,102202.95
2018-12-25T21:48:34.565Z,102192.00
2018-12-25T21:51:04.343Z,102177.39
2018-12-25T21:53:34.118Z,102183.35
2018-12-25T21:56:03.942Z,102179.70
2018-12-25T21:58:33.752Z,102172.41
2018-12-25T22:01:03.478Z,102179.86
2018-12-25T22:03:33.706Z,102165.91
2018-12-25T22:06:05.129Z,102180.91
2018-12-25T22:08:34.946Z,102165.06
2018-12-25T22:11:04.798Z,102175.33
2018-12-25T22:13:34.637Z,102167.44
2018-12-25T22:16:04.430Z,102167.28
2018-12-25T22:18:34.386Z,102165.31
2018-12-25T22:21:04.396Z,102157.98
2018-12-25T22:23:34.785Z,102171.43
2018-12-25T22:26:04.732Z,102178.84
2018-12-25T22:28:34.602Z,102188.42
2018-12-25T22:31:04.409Z,102190.30
2018-12-25T22:33:34.662Z,102179.61
2018-12-25T22:36:04.632Z,102182.72
2018-12-25T22:38:34.792Z,102184.23
2018-12-25T22:41:04.692Z,102172.22
2018-12-25T22:43:34.836Z,102182.72
2018-12-25T22:46:04.559Z,102180.50
2018-12-25T22:48:34.624Z,102183.00
2018-12-25T22:51:04.349Z,102179.58
2018-12-25T22:53:34.425Z,102184.71
2018-12-25T22:56:04.990Z,102184.33
2018-12-25T22:58:34.731Z,102181.12
2018-12-25T23:01:04.446Z,102180.72
2018-12-25T23:03:34.249Z,102177.23
2018-12-25T23:06:04.342Z,102181.54
2018-12-25T23:08:34.515Z,102175.45
2018-12-25T23:11:04.271Z,102173.71
2018-12-25T23:13:34.296Z,102172.98
2018-12-25T23:16:04.042Z,102173.05
2018-12-25T23:18:33.837Z,102183.03
2018-12-25T23:21:03.888Z,102181.63
2018-12-25T23:23:34.022Z,102180.67
2018-12-25T23:26:04.128Z,102189.87
2018-12-25T23:28:34.022Z,102189.95
2018-12-25T23:31:03.816Z,102178.63
2018-12-25T23:33:33.554Z,102175.76
2018-12-25T23:36:03.611Z,102177.88
2018-12-25T23:38:33.339Z,102169.20
2018-12-25T23:41:03.107Z,102181.44
2018-12-25T23:43:33.515Z,102165.41
2018-12-25T23:46:03.612Z,102171.80
2018-12-25T23:48:33.376Z,102169.27
2018-12-25T23:51:03.164Z,102159.59
2018-12-25T23:53:33.164Z,102168.47
2018-12-25T23:56:03.220Z,102166.98
2018-12-25T23:58:33.217Z,102164.00
